If you wish to contribute or participate in the discussions about articles you are invited to join SKYbrary as a registered user

 Actions

Miyako Airport

From SKYbrary Wiki

ROMY
Airport
ICAO: ROMY – IATA: MMY
Summary
Name Miyako Airport
Region Asia and Pacific
Territory Japan JP.gif
Location Miyako, Okinawa Prefecture
Serving Miyakojima
Elevation 42.672 m <br />140 ft42.672 m <br />
Coordinates 24° 46' 45.98" N, 125° 17' 50.95" E
Runways
Designator Length Width Surface ROPS
4/22 1999 m6,558.399 ft <br /> 46 m150.919 ft <br /> ASP yes/yes


METAR
Observation ROMY 230800Z 09013KT 9999 VCSH SCT012 SCT039 BKN090 26/24 Q1007
Station Miyakojima
Date/Time 23 June 2021 08:00:00
Wind direction 90°
Wind speed 13 kts
Lowest cloud amount scattered clouds
Temperature 26°C
Dew point 24°C
Humidity 88%
QNH 1007 hPa
Weather condition in vicinity: showers

Miyako Airport is an airport on Miyako-jima (Miyako Island) in Miyakojima, Okinawa, Japan.

Climatology

Humid Sub-tropical climate (Köppen climate classification Cfa)

Maps

Terrain

Loading map...

Airport Layout

Loading map...


Accidents & Serious Incidents at or in vicinity of ROMY

None on SKYbrary